sensor_id;sensor_type;location;lat;lon;timestamp;pressure;altitude;pressure_sealevel;temperature;humidity
5455;BME280;2750;49.050;9.250;2024-03-02T00:02:06;97655.25;;;9.71;91.95
5455;BME280;2750;49.050;9.250;2024-03-02T00:07:07;97657.53;;;9.89;91.18
5455;BME280;2750;49.050;9.250;2024-03-02T00:12:11;97653.41;;;10.14;89.95
5455;BME280;2750;49.050;9.250;2024-03-02T00:17:24;97655.56;;;10.21;89.48
5455;BME280;2750;49.050;9.250;2024-03-02T00:22:26;97651.94;;;10.09;88.59
5455;BME280;2750;49.050;9.250;2024-03-02T00:27:28;97647.59;;;10.10;88.92
5455;BME280;2750;49.050;9.250;2024-03-02T00:32:32;97649.59;;;9.92;88.41
5455;BME280;2750;49.050;9.250;2024-03-02T00:37:34;97655.56;;;9.93;89.06
5455;BME280;2750;49.050;9.250;2024-03-02T00:42:36;97653.09;;;9.91;88.92
5455;BME280;2750;49.050;9.250;2024-03-02T00:47:39;97647.66;;;9.82;89.54
5455;BME280;2750;49.050;9.250;2024-03-02T00:52:41;97643.88;;;9.59;89.49
5455;BME280;2750;49.050;9.250;2024-03-02T00:57:42;97651.06;;;9.82;89.44
5455;BME280;2750;49.050;9.250;2024-03-02T01:02:46;97649.22;;;9.84;89.07
5455;BME280;2750;49.050;9.250;2024-03-02T01:07:48;97643.34;;;9.54;89.38
5455;BME280;2750;49.050;9.250;2024-03-02T01:12:49;97651.47;;;9.48;90.07
5455;BME280;2750;49.050;9.250;2024-03-02T01:17:52;97659.50;;;9.72;89.05
5455;BME280;2750;49.050;9.250;2024-03-02T01:22:54;97654.50;;;9.83;88.72
5455;BME280;2750;49.050;9.250;2024-03-02T01:27:55;97640.72;;;9.82;87.94
5455;BME280;2750;49.050;9.250;2024-03-02T01:32:58;97641.28;;;9.73;87.82
5455;BME280;2750;49.050;9.250;2024-03-02T01:38:00;97640.34;;;9.74;87.74
5455;BME280;2750;49.050;9.250;2024-03-02T01:43:03;97646.47;;;9.59;88.28
5455;BME280;2750;49.050;9.250;2024-03-02T01:48:07;97653.88;;;9.37;88.99
5455;BME280;2750;49.050;9.250;2024-03-02T01:53:08;97642.22;;;9.44;88.57
5455;BME280;2750;49.050;9.250;2024-03-02T01:58:10;97634.28;;;9.33;88.47
5455;BME280;2750;49.050;9.250;2024-03-02T02:03:13;97628.44;;;9.29;88.03
5455;BME280;2750;49.050;9.250;2024-03-02T02:08:15;97624.47;;;9.38;87.74
5455;BME280;2750;49.050;9.250;2024-03-02T02:13:16;97625.75;;;9.17;87.95
5455;BME280;2750;49.050;9.250;2024-03-02T02:18:19;97621.34;;;9.19;87.76
5455;BME280;2750;49.050;9.250;2024-03-02T02:23:22;97600.41;;;8.93;88.31
5455;BME280;2750;49.050;9.250;2024-03-02T02:28:23;97617.22;;;8.86;89.17
5455;BME280;2750;49.050;9.250;2024-03-02T02:33:25;97618.84;;;9.03;89.05
5455;BME280;2750;49.050;9.250;2024-03-02T02:38:28;97609.50;;;9.00;88.66
5455;BME280;2750;49.050;9.250;2024-03-02T02:43:29;97614.44;;;8.89;88.89
5455;BME280;2750;49.050;9.250;2024-03-02T02:48:31;97599.13;;;8.86;88.73
5455;BME280;2750;49.050;9.250;2024-03-02T02:53:34;97598.19;;;8.73;89.14
5455;BME280;2750;49.050;9.250;2024-03-02T02:58:35;97596.44;;;8.74;89.17
5455;BME280;2750;49.050;9.250;2024-03-02T03:03:37;97600.22;;;8.68;90.30
5455;BME280;2750;49.050;9.250;2024-03-02T03:08:40;97603.75;;;8.81;88.85
5455;BME280;2750;49.050;9.250;2024-03-02T03:13:41;97596.34;;;8.75;88.56
5455;BME280;2750;49.050;9.250;2024-03-02T03:18:43;97602.13;;;8.64;89.01
5455;BME280;2750;49.050;9.250;2024-03-02T03:23:46;97607.31;;;8.64;89.73
5455;BME280;2750;49.050;9.250;2024-03-02T03:28:47;97612.41;;;8.66;88.86
5455;BME280;2750;49.050;9.250;2024-03-02T03:33:49;97617.94;;;8.74;89.09
5455;BME280;2750;49.050;9.250;2024-03-02T03:38:52;97619.78;;;8.72;88.94
5455;BME280;2750;49.050;9.250;2024-03-02T03:43:54;97605.34;;;8.54;89.18
5455;BME280;2750;49.050;9.250;2024-03-02T03:48:56;97609.22;;;8.47;89.73
5455;BME280;2750;49.050;9.250;2024-03-02T03:53:58;97605.28;;;8.24;89.96
5455;BME280;2750;49.050;9.250;2024-03-02T03:59:00;97609.78;;;8.21;89.94
5455;BME280;2750;49.050;9.250;2024-03-02T04:04:02;97610.66;;;8.05;89.99
5455;BME280;2750;49.050;9.250;2024-03-02T04:09:05;97597.59;;;8.08;91.54
5455;BME280;2750;49.050;9.250;2024-03-02T04:14:07;97601.50;;;8.15;90.24
5455;BME280;2750;49.050;9.250;2024-03-02T04:19:09;97609.78;;;8.21;90.96
5455;BME280;2750;49.050;9.250;2024-03-02T04:24:12;97605.97;;;8.28;89.86
5455;BME280;2750;49.050;9.250;2024-03-02T04:29:13;97609.31;;;8.30;89.51
5455;BME280;2750;49.050;9.250;2024-03-02T04:34:15;97603.72;;;8.22;89.38
5455;BME280;2750;49.050;9.250;2024-03-02T04:39:17;97611.81;;;8.15;89.80
5455;BME280;2750;49.050;9.250;2024-03-02T04:44:19;97609.50;;;7.95;90.34
5455;BME280;2750;49.050;9.250;2024-03-02T04:49:21;97601.44;;;7.54;92.99
5455;BME280;2750;49.050;9.250;2024-03-02T04:54:24;97604.09;;;7.84;91.40
5455;BME280;2750;49.050;9.250;2024-03-02T04:59:26;97613.16;;;8.07;91.02
5455;BME280;2750;49.050;9.250;2024-03-02T05:04:28;97601.25;;;8.20;90.50
5455;BME280;2750;49.050;9.250;2024-03-02T05:09:30;97603.72;;;8.37;90.61
5455;BME280;2750;49.050;9.250;2024-03-02T05:14:32;97603.78;;;8.36;89.35
5455;BME280;2750;49.050;9.250;2024-03-02T05:19:33;97602.56;;;8.43;88.80
5455;BME280;2750;49.050;9.250;2024-03-02T05:24:36;97599.38;;;8.38;88.48
5455;BME280;2750;49.050;9.250;2024-03-02T05:29:38;97597.13;;;8.32;89.44
5455;BME280;2750;49.050;9.250;2024-03-02T05:34:39;97605.00;;;8.30;89.71
5455;BME280;2750;49.050;9.250;2024-03-02T05:39:42;97605.88;;;8.45;90.40
5455;BME280;2750;49.050;9.250;2024-03-02T05:44:44;97607.28;;;8.50;90.02
5455;BME280;2750;49.050;9.250;2024-03-02T05:49:45;97610.53;;;8.68;89.48
5455;BME280;2750;49.050;9.250;2024-03-02T05:54:48;97610.03;;;8.77;88.85
5455;BME280;2750;49.050;9.250;2024-03-02T05:59:50;97609.91;;;8.79;88.13
5455;BME280;2750;49.050;9.250;2024-03-02T06:04:54;97611.00;;;8.75;88.65
5455;BME280;2750;49.050;9.250;2024-03-02T06:09:57;97628.13;;;8.77;88.94
5455;BME280;2750;49.050;9.250;2024-03-02T06:14:59;97631.94;;;9.00;88.33
5455;BME280;2750;49.050;9.250;2024-03-02T06:20:00;97627.44;;;9.03;87.79
5455;BME280;2750;49.050;9.250;2024-03-02T06:25:04;97634.47;;;9.16;87.60
5455;BME280;2750;49.050;9.250;2024-03-02T06:30:06;97638.88;;;9.13;88.72
5455;BME280;2750;49.050;9.250;2024-03-02T06:35:08;97642.97;;;9.46;87.86
5455;BME280;2750;49.050;9.250;2024-03-02T06:40:11;97644.44;;;9.64;87.33
5455;BME280;2750;49.050;9.250;2024-03-02T06:45:13;97638.13;;;9.82;86.63
5455;BME280;2750;49.050;9.250;2024-03-02T06:50:15;97646.06;;;9.93;85.96
5455;BME280;2750;49.050;9.250;2024-03-02T06:55:18;97638.25;;;10.07;85.31
5455;BME280;2750;49.050;9.250;2024-03-02T07:00:19;97635.53;;;9.96;86.13
5455;BME280;2750;49.050;9.250;2024-03-02T07:05:21;97636.16;;;10.00;85.64
5455;BME280;2750;49.050;9.250;2024-03-02T07:10:24;97639.59;;;10.27;85.66
5455;BME280;2750;49.050;9.250;2024-03-02T07:15:26;97644.63;;;10.43;85.68
5455;BME280;2750;49.050;9.250;2024-03-02T07:20:45;97642.97;;;10.81;84.88
5455;BME280;2750;49.050;9.250;2024-03-02T07:25:48;97639.06;;;10.88;83.61
5455;BME280;2750;49.050;9.250;2024-03-02T07:30:57;97635.22;;;11.32;82.78
5455;BME280;2750;49.050;9.250;2024-03-02T07:36:00;97642.66;;;11.62;81.63
5455;BME280;2750;49.050;9.250;2024-03-02T07:41:03;97640.69;;;11.78;81.10
5455;BME280;2750;49.050;9.250;2024-03-02T07:46:05;97643.09;;;11.68;81.82
5455;BME280;2750;49.050;9.250;2024-03-02T07:51:07;97646.28;;;11.97;80.55
5455;BME280;2750;49.050;9.250;2024-03-02T07:56:10;97657.41;;;11.99;80.56
5455;BME280;2750;49.050;9.250;2024-03-02T08:01:11;97651.78;;;11.92;80.06
5455;BME280;2750;49.050;9.250;2024-03-02T08:06:13;97660.97;;;11.85;80.49
5455;BME280;2750;49.050;9.250;2024-03-02T08:11:16;97660.63;;;12.03;80.22
5455;BME280;2750;49.050;9.250;2024-03-02T08:16:18;97657.31;;;12.24;79.08
5455;BME280;2750;49.050;9.250;2024-03-02T08:21:20;97655.47;;;12.14;78.78
5455;BME280;2750;49.050;9.250;2024-03-02T08:26:23;97652.72;;;12.52;78.25
5455;BME280;2750;49.050;9.250;2024-03-02T08:31:25;97649.00;;;12.43;77.91
5455;BME280;2750;49.050;9.250;2024-03-02T08:36:26;97648.69;;;12.24;77.70
5455;BME280;2750;49.050;9.250;2024-03-02T08:41:29;97651.34;;;12.35;78.52
5455;BME280;2750;49.050;9.250;2024-03-02T08:46:30;97649.34;;;12.38;77.88
5455;BME280;2750;49.050;9.250;2024-03-02T08:51:32;97635.72;;;12.59;77.74
5455;BME280;2750;49.050;9.250;2024-03-02T08:56:35;97631.44;;;13.27;75.90
5455;BME280;2750;49.050;9.250;2024-03-02T09:01:37;97634.50;;;14.10;74.39
5455;BME280;2750;49.050;9.250;2024-03-02T09:06:41;97632.66;;;14.65;71.36
5455;BME280;2750;49.050;9.250;2024-03-02T09:11:45;97619.47;;;15.79;70.44
5455;BME280;2750;49.050;9.250;2024-03-02T09:16:47;97614.50;;;16.45;67.76
5455;BME280;2750;49.050;9.250;2024-03-02T09:21:49;97627.09;;;16.80;66.72
5455;BME280;2750;49.050;9.250;2024-03-02T09:26:52;97608.34;;;17.41;64.63
5455;BME280;2750;49.050;9.250;2024-03-02T09:31:54;97607.91;;;17.55;64.21
5455;BME280;2750;49.050;9.250;2024-03-02T09:36:56;97608.28;;;17.13;65.13
5455;BME280;2750;49.050;9.250;2024-03-02T09:41:59;97609.69;;;17.08;64.64
5455;BME280;2750;49.050;9.250;2024-03-02T09:47:00;97607.50;;;17.40;65.08
5455;BME280;2750;49.050;9.250;2024-03-02T09:52:03;97602.50;;;17.93;64.34
5455;BME280;2750;49.050;9.250;2024-03-02T09:57:07;97599.69;;;18.40;62.01
5455;BME280;2750;49.050;9.250;2024-03-02T10:02:09;97596.16;;;17.86;61.87
5455;BME280;2750;49.050;9.250;2024-03-02T10:07:13;97603.81;;;17.33;62.73
5455;BME280;2750;49.050;9.250;2024-03-02T10:12:16;97605.84;;;17.58;64.10
5455;BME280;2750;49.050;9.250;2024-03-02T10:17:18;97605.22;;;18.82;61.39
5455;BME280;2750;49.050;9.250;2024-03-02T10:22:23;97595.91;;;18.70;61.29
5455;BME280;2750;49.050;9.250;2024-03-02T10:27:27;97589.00;;;18.69;61.21
5455;BME280;2750;49.050;9.250;2024-03-02T10:32:29;97588.28;;;17.86;62.82
5455;BME280;2750;49.050;9.250;2024-03-02T10:37:30;97584.91;;;18.21;62.51
5455;BME280;2750;49.050;9.250;2024-03-02T10:42:36;97577.25;;;18.45;62.44
5455;BME280;2750;49.050;9.250;2024-03-02T10:47:39;97576.31;;;18.64;61.25
5455;BME280;2750;49.050;9.250;2024-03-02T10:52:40;97559.56;;;19.08;60.02
5455;BME280;2750;49.050;9.250;2024-03-02T10:57:54;97554.84;;;18.94;60.44
5455;BME280;2750;49.050;9.250;2024-03-02T11:02:58;97549.56;;;18.69;60.47
5455;BME280;2750;49.050;9.250;2024-03-02T11:08:06;97546.03;;;18.78;60.51
5455;BME280;2750;49.050;9.250;2024-03-02T11:13:12;97529.59;;;19.27;59.55
5455;BME280;2750;49.050;9.250;2024-03-02T11:18:14;97528.91;;;19.25;58.88
5455;BME280;2750;49.050;9.250;2024-03-02T11:23:16;97528.28;;;19.05;59.31
5455;BME280;2750;49.050;9.250;2024-03-02T11:28:34;97527.19;;;19.08;59.10
5455;BME280;2750;49.050;9.250;2024-03-02T11:33:36;97509.84;;;19.23;60.49
5455;BME280;2750;49.050;9.250;2024-03-02T11:38:38;97505.09;;;19.69;58.24
5455;BME280;2750;49.050;9.250;2024-03-02T11:43:41;97501.72;;;19.92;56.98
5455;BME280;2750;49.050;9.250;2024-03-02T11:48:46;97485.44;;;20.21;55.92
5455;BME280;2750;49.050;9.250;2024-03-02T11:53:48;97467.34;;;20.18;56.16
5455;BME280;2750;49.050;9.250;2024-03-02T11:58:53;97467.53;;;20.49;55.21
5455;BME280;2750;49.050;9.250;2024-03-02T12:03:55;97451.72;;;20.41;55.76
5455;BME280;2750;49.050;9.250;2024-03-02T12:08:57;97442.59;;;20.84;55.35
5455;BME280;2750;49.050;9.250;2024-03-02T12:14:00;97440.84;;;21.23;54.77
5455;BME280;2750;49.050;9.250;2024-03-02T12:19:02;97437.75;;;22.04;53.10
5455;BME280;2750;49.050;9.250;2024-03-02T12:24:04;97437.88;;;21.57;53.08
5455;BME280;2750;49.050;9.250;2024-03-02T12:29:07;97428.97;;;21.81;52.42
5455;BME280;2750;49.050;9.250;2024-03-02T12:34:09;97425.78;;;21.63;52.03
5455;BME280;2750;49.050;9.250;2024-03-02T12:39:10;97419.50;;;21.64;51.03
5455;BME280;2750;49.050;9.250;2024-03-02T12:44:13;97420.72;;;21.84;51.33
5455;BME280;2750;49.050;9.250;2024-03-02T12:49:15;97406.38;;;22.61;50.29
5455;BME280;2750;49.050;9.250;2024-03-02T12:54:17;97400.88;;;23.51;50.00
5455;BME280;2750;49.050;9.250;2024-03-02T12:59:24;97400.78;;;25.06;47.84
5455;BME280;2750;49.050;9.250;2024-03-02T13:04:28;97392.22;;;25.10;47.96
5455;BME280;2750;49.050;9.250;2024-03-02T13:09:31;97391.19;;;25.59;47.72
5455;BME280;2750;49.050;9.250;2024-03-02T13:14:35;97391.75;;;25.00;47.84
5455;BME280;2750;49.050;9.250;2024-03-02T13:19:36;97389.56;;;25.10;46.46
5455;BME280;2750;49.050;9.250;2024-03-02T13:24:38;97377.53;;;25.75;46.18
5455;BME280;2750;49.050;9.250;2024-03-02T13:29:43;97365.28;;;25.87;47.17
5455;BME280;2750;49.050;9.250;2024-03-02T13:34:45;97366.97;;;25.34;45.76
5455;BME280;2750;49.050;9.250;2024-03-02T13:39:47;97367.50;;;25.64;45.80
5455;BME280;2750;49.050;9.250;2024-03-02T13:44:50;97351.41;;;26.25;46.01
5455;BME280;2750;49.050;9.250;2024-03-02T13:49:52;97345.03;;;26.52;45.24
5455;BME280;2750;49.050;9.250;2024-03-02T13:54:54;97346.72;;;26.33;43.56
5455;BME280;2750;49.050;9.250;2024-03-02T13:59:57;97349.59;;;25.32;45.93
5455;BME280;2750;49.050;9.250;2024-03-02T14:04:58;97342.28;;;25.47;44.99
5455;BME280;2750;49.050;9.250;2024-03-02T14:10:00;97342.91;;;24.26;46.90
5455;BME280;2750;49.050;9.250;2024-03-02T14:15:03;97342.94;;;24.67;47.58
5455;BME280;2750;49.050;9.250;2024-03-02T14:20:06;97339.19;;;23.99;47.46
5455;BME280;2750;49.050;9.250;2024-03-02T14:25:10;97324.25;;;24.47;47.64
5455;BME280;2750;49.050;9.250;2024-03-02T14:30:13;97317.88;;;24.42;46.81
5455;BME280;2750;49.050;9.250;2024-03-02T14:35:15;97321.06;;;23.81;46.28
5455;BME280;2750;49.050;9.250;2024-03-02T14:40:17;97312.03;;;23.33;47.15
5455;BME280;2750;49.050;9.250;2024-03-02T14:45:19;97312.91;;;23.41;47.75
5455;BME280;2750;49.050;9.250;2024-03-02T14:50:21;97303.00;;;22.92;48.74
5455;BME280;2750;49.050;9.250;2024-03-02T14:55:23;97304.81;;;23.06;48.12
5455;BME280;2750;49.050;9.250;2024-03-02T15:00:25;97300.47;;;23.56;46.79
5455;BME280;2750;49.050;9.250;2024-03-02T15:05:27;97281.41;;;23.67;46.58
5455;BME280;2750;49.050;9.250;2024-03-02T15:10:28;97285.97;;;23.52;46.85
5455;BME280;2750;49.050;9.250;2024-03-02T15:15:31;97276.75;;;23.48;47.46
5455;BME280;2750;49.050;9.250;2024-03-02T15:20:34;97276.22;;;23.38;47.97
5455;BME280;2750;49.050;9.250;2024-03-02T15:25:35;97271.63;;;22.89;46.92
5455;BME280;2750;49.050;9.250;2024-03-02T15:30:38;97256.88;;;22.80;47.66
5455;BME280;2750;49.050;9.250;2024-03-02T15:35:40;97261.56;;;22.99;47.78
5455;BME280;2750;49.050;9.250;2024-03-02T15:40:41;97260.44;;;22.72;47.61
5455;BME280;2750;49.050;9.250;2024-03-02T15:45:44;97246.00;;;21.87;48.70
5455;BME280;2750;49.050;9.250;2024-03-02T15:50:46;97248.72;;;21.19;49.74
5455;BME280;2750;49.050;9.250;2024-03-02T15:55:47;97257.00;;;20.46;51.08
5455;BME280;2750;49.050;9.250;2024-03-02T16:00:50;97254.63;;;20.12;51.43
5455;BME280;2750;49.050;9.250;2024-03-02T16:05:51;97246.66;;;19.65;53.17
5455;BME280;2750;49.050;9.250;2024-03-02T16:10:53;97261.06;;;19.04;54.76
5455;BME280;2750;49.050;9.250;2024-03-02T16:15:56;97258.19;;;18.66;55.83
5455;BME280;2750;49.050;9.250;2024-03-02T16:20:58;97259.84;;;18.41;56.62
5455;BME280;2750;49.050;9.250;2024-03-02T16:25:59;97260.44;;;17.93;57.11
5455;BME280;2750;49.050;9.250;2024-03-02T16:31:02;97249.94;;;17.49;58.76
5455;BME280;2750;49.050;9.250;2024-03-02T16:36:04;97243.75;;;17.15;59.71
5455;BME280;2750;49.050;9.250;2024-03-02T16:41:06;97239.91;;;16.74;59.94
5455;BME280;2750;49.050;9.250;2024-03-02T16:46:10;97263.97;;;16.60;61.11
5455;BME280;2750;49.050;9.250;2024-03-02T16:51:12;97262.34;;;16.49;60.40
5455;BME280;2750;49.050;9.250;2024-03-02T16:56:14;97264.31;;;16.47;60.84
5455;BME280;2750;49.050;9.250;2024-03-02T17:01:17;97269.84;;;16.44;61.25
5455;BME280;2750;49.050;9.250;2024-03-02T17:06:19;97263.81;;;16.34;61.42
5455;BME280;2750;49.050;9.250;2024-03-02T17:11:20;97274.88;;;16.28;61.50
5455;BME280;2750;49.050;9.250;2024-03-02T17:16:23;97285.75;;;16.23;62.07
5455;BME280;2750;49.050;9.250;2024-03-02T17:21:25;97285.97;;;16.03;62.53
5455;BME280;2750;49.050;9.250;2024-03-02T17:26:26;97287.09;;;15.91;63.02
5455;BME280;2750;49.050;9.250;2024-03-02T17:31:31;97292.91;;;15.85;63.14
5455;BME280;2750;49.050;9.250;2024-03-02T17:36:33;97291.38;;;15.92;63.88
5455;BME280;2750;49.050;9.250;2024-03-02T17:41:35;97283.03;;;15.69;64.83
5455;BME280;2750;49.050;9.250;2024-03-02T17:46:37;97287.28;;;15.41;66.33
5455;BME280;2750;49.050;9.250;2024-03-02T17:51:39;97292.94;;;15.27;68.19
5455;BME280;2750;49.050;9.250;2024-03-02T17:56:40;97302.97;;;15.22;69.52
5455;BME280;2750;49.050;9.250;2024-03-02T18:01:43;97313.00;;;14.98;71.69
5455;BME280;2750;49.050;9.250;2024-03-02T18:06:48;97317.34;;;14.88;73.27
5455;BME280;2750;49.050;9.250;2024-03-02T18:11:51;97306.19;;;14.76;73.26
5455;BME280;2750;49.050;9.250;2024-03-02T18:16:54;97314.00;;;14.66;74.40
5455;BME280;2750;49.050;9.250;2024-03-02T18:21:55;97315.97;;;14.74;75.06
5455;BME280;2750;49.050;9.250;2024-03-02T18:26:57;97305.06;;;14.69;75.20
5455;BME280;2750;49.050;9.250;2024-03-02T18:32:01;97307.97;;;14.66;74.90
5455;BME280;2750;49.050;9.250;2024-03-02T18:37:04;97290.84;;;14.43;76.26
5455;BME280;2750;49.050;9.250;2024-03-02T18:42:05;97288.84;;;14.25;76.58
5455;BME280;2750;49.050;9.250;2024-03-02T18:47:08;97272.09;;;13.98;77.22
5455;BME280;2750;49.050;9.250;2024-03-02T18:52:11;97270.59;;;14.25;76.50
5455;BME280;2750;49.050;9.250;2024-03-02T18:57:12;97266.81;;;14.09;77.07
5455;BME280;2750;49.050;9.250;2024-03-02T19:02:15;97251.31;;;14.17;76.82
5455;BME280;2750;49.050;9.250;2024-03-02T19:07:17;97254.03;;;14.36;76.15
5455;BME280;2750;49.050;9.250;2024-03-02T19:12:18;97253.81;;;14.49;76.04
5455;BME280;2750;49.050;9.250;2024-03-02T19:17:21;97248.28;;;14.42;75.77
5455;BME280;2750;49.050;9.250;2024-03-02T19:22:23;97255.97;;;14.53;75.22
5455;BME280;2750;49.050;9.250;2024-03-02T19:27:26;97258.47;;;14.64;75.15
5455;BME280;2750;49.050;9.250;2024-03-02T19:32:29;97255.16;;;14.13;75.71
5455;BME280;2750;49.050;9.250;2024-03-02T19:37:30;97257.00;;;13.71;76.78
5455;BME280;2750;49.050;9.250;2024-03-02T19:42:32;97252.69;;;13.60;77.61
5455;BME280;2750;49.050;9.250;2024-03-02T19:47:36;97250.63;;;13.84;77.08
5455;BME280;2750;49.050;9.250;2024-03-02T19:52:37;97240.19;;;13.84;76.87
5455;BME280;2750;49.050;9.250;2024-03-02T19:57:39;97230.69;;;13.74;76.84
5455;BME280;2750;49.050;9.250;2024-03-02T20:02:46;97234.88;;;13.96;76.55
5455;BME280;2750;49.050;9.250;2024-03-02T20:07:47;97233.84;;;13.77;77.07
5455;BME280;2750;49.050;9.250;2024-03-02T20:12:49;97233.81;;;13.98;76.44
5455;BME280;2750;49.050;9.250;2024-03-02T20:17:52;97221.19;;;14.03;75.53
5455;BME280;2750;49.050;9.250;2024-03-02T20:22:55;97223.88;;;13.82;76.60
5455;BME280;2750;49.050;9.250;2024-03-02T20:27:56;97211.94;;;13.89;76.29
5455;BME280;2750;49.050;9.250;2024-03-02T20:33:00;97223.25;;;13.69;76.30
5455;BME280;2750;49.050;9.250;2024-03-02T20:38:02;97215.66;;;13.36;77.39
5455;BME280;2750;49.050;9.250;2024-03-02T20:43:04;97219.19;;;13.35;76.89
5455;BME280;2750;49.050;9.250;2024-03-02T20:48:07;97204.28;;;13.16;77.53
5455;BME280;2750;49.050;9.250;2024-03-02T20:53:09;97202.31;;;12.98;78.14
5455;BME280;2750;49.050;9.250;2024-03-02T20:58:11;97211.50;;;13.13;78.06
5455;BME280;2750;49.050;9.250;2024-03-02T21:03:15;97206.38;;;12.90;78.43
5455;BME280;2750;49.050;9.250;2024-03-02T21:08:17;97204.81;;;12.67;79.34
5455;BME280;2750;49.050;9.250;2024-03-02T21:13:19;97211.09;;;12.54;80.25
5455;BME280;2750;49.050;9.250;2024-03-02T21:18:22;97217.72;;;12.58;79.83
5455;BME280;2750;49.050;9.250;2024-03-02T21:23:23;97206.84;;;12.64;79.90
5455;BME280;2750;49.050;9.250;2024-03-02T21:28:25;97201.72;;;12.41;80.78
5455;BME280;2750;49.050;9.250;2024-03-02T21:33:28;97192.81;;;12.44;80.78
5455;BME280;2750;49.050;9.250;2024-03-02T21:38:29;97184.34;;;12.20;82.07
5455;BME280;2750;49.050;9.250;2024-03-02T21:43:31;97188.66;;;11.98;82.48
5455;BME280;2750;49.050;9.250;2024-03-02T21:48:35;97176.84;;;11.83;83.15
5455;BME280;2750;49.050;9.250;2024-03-02T21:53:36;97177.59;;;12.28;82.25
5455;BME280;2750;49.050;9.250;2024-03-02T21:58:38;97164.47;;;12.41;81.48
5455;BME280;2750;49.050;9.250;2024-03-02T22:03:41;97163.13;;;12.46;81.48
5455;BME280;2750;49.050;9.250;2024-03-02T22:08:45;97160.66;;;12.45;81.89
5455;BME280;2750;49.050;9.250;2024-03-02T22:13:47;97163.69;;;12.50;81.52
5455;BME280;2750;49.050;9.250;2024-03-02T22:18:50;97164.47;;;12.41;82.37
5455;BME280;2750;49.050;9.250;2024-03-02T22:23:52;97154.53;;;12.35;82.80
5455;BME280;2750;49.050;9.250;2024-03-02T22:28:53;97155.06;;;12.50;82.77
5455;BME280;2750;49.050;9.250;2024-03-02T22:33:57;97142.72;;;12.63;82.11
5455;BME280;2750;49.050;9.250;2024-03-02T22:38:58;97152.41;;;12.72;81.83
5455;BME280;2750;49.050;9.250;2024-03-02T22:44:00;97163.78;;;12.91;81.52
5455;BME280;2750;49.050;9.250;2024-03-02T22:49:03;97167.69;;;13.18;80.50
5455;BME280;2750;49.050;9.250;2024-03-02T22:54:04;97174.72;;;13.27;79.50
5455;BME280;2750;49.050;9.250;2024-03-02T22:59:06;97181.50;;;12.98;80.81
5455;BME280;2750;49.050;9.250;2024-03-02T23:04:09;97185.38;;;12.39;82.21
5455;BME280;2750;49.050;9.250;2024-03-02T23:09:10;97187.88;;;12.41;82.54
5455;BME280;2750;49.050;9.250;2024-03-02T23:14:12;97194.53;;;12.12;83.63
5455;BME280;2750;49.050;9.250;2024-03-02T23:19:15;97181.56;;;12.55;81.92
5455;BME280;2750;49.050;9.250;2024-03-02T23:24:20;97173.28;;;12.50;82.05
5455;BME280;2750;49.050;9.250;2024-03-02T23:29:22;97157.66;;;12.50;81.25
5455;BME280;2750;49.050;9.250;2024-03-02T23:34:25;97164.41;;;12.52;81.42
5455;BME280;2750;49.050;9.250;2024-03-02T23:39:27;97160.09;;;12.41;81.77
5455;BME280;2750;49.050;9.250;2024-03-02T23:44:46;97167.09;;;12.30;81.67
5455;BME280;2750;49.050;9.250;2024-03-02T23:49:49;97153.69;;;12.03;82.67
5455;BME280;2750;49.050;9.250;2024-03-02T23:54:50;97150.34;;;12.01;82.34
5455;BME280;2750;49.050;9.250;2024-03-02T23:59:52;97151.91;;;11.81;82.92
